createdAt,value
2023-04-27T00:01:55.565Z,100.00
2023-04-27T00:04:24.115Z,100.00
2023-04-27T00:06:52.737Z,100.00
2023-04-27T00:09:21.194Z,100.00
2023-04-27T00:11:49.564Z,100.00
2023-04-27T00:14:17.913Z,100.00
2023-04-27T00:16:46.445Z,100.00
2023-04-27T00:19:16.614Z,100.00
2023-04-27T00:21:45.014Z,100.00
2023-04-27T00:24:13.454Z,100.00
2023-04-27T00:26:41.909Z,100.00
2023-04-27T00:29:10.661Z,100.00
2023-04-27T00:31:40.846Z,100.00
2023-04-27T00:34:09.302Z,100.00
2023-04-27T00:36:39.166Z,100.00
2023-04-27T00:39:07.651Z,100.00
2023-04-27T00:41:38.637Z,100.00
2023-04-27T00:44:07.366Z,100.00
2023-04-27T00:46:36.420Z,100.00
2023-04-27T00:49:05.692Z,100.00
2023-04-27T00:51:34.073Z,100.00
2023-04-27T00:54:04.754Z,100.00
2023-04-27T00:56:33.800Z,100.00
2023-04-27T00:59:02.186Z,100.00
2023-04-27T01:01:31.534Z,100.00
2023-04-27T01:04:00.328Z,100.00
2023-04-27T01:06:29.837Z,100.00
2023-04-27T01:08:58.160Z,100.00
2023-04-27T01:11:28.116Z,100.00
2023-04-27T01:13:57.230Z,100.00
2023-04-27T01:16:26.537Z,100.00
2023-04-27T01:18:54.910Z,100.00
2023-04-27T01:21:26.225Z,100.00
2023-04-27T01:23:56.234Z,100.00
2023-04-27T01:26:24.501Z,100.00
2023-04-27T01:28:52.900Z,100.00
2023-04-27T01:31:21.757Z,100.00
2023-04-27T01:33:50.062Z,100.00
2023-04-27T01:36:18.843Z,100.00
2023-04-27T01:38:47.484Z,100.00
2023-04-27T01:41:17.530Z,100.00
2023-04-27T01:43:46.338Z,100.00
2023-04-27T01:46:15.868Z,100.00
2023-04-27T01:48:45.308Z,100.00
2023-04-27T01:51:15.557Z,100.00
2023-04-27T01:53:46.352Z,100.00
2023-04-27T01:56:14.826Z,100.00
2023-04-27T01:58:44.609Z,100.00
2023-04-27T02:01:12.949Z,100.00
2023-04-27T02:03:41.995Z,100.00
2023-04-27T02:06:10.809Z,100.00
2023-04-27T02:08:41.091Z,100.00
2023-04-27T02:11:10.454Z,100.00
2023-04-27T02:13:39.264Z,100.00
2023-04-27T02:16:09.543Z,100.00
2023-04-27T02:18:38.632Z,100.00
2023-04-27T02:21:10.983Z,100.00
2023-04-27T02:23:39.561Z,100.00
2023-04-27T02:26:08.214Z,100.00
2023-04-27T02:28:39.226Z,100.00
2023-04-27T02:31:09.345Z,100.00
2023-04-27T02:33:37.876Z,100.00
2023-04-27T02:36:06.864Z,100.00
2023-04-27T02:38:36.090Z,100.00
2023-04-27T02:41:04.645Z,100.00
2023-04-27T02:43:35.529Z,100.00
2023-04-27T02:46:07.600Z,100.00
2023-04-27T02:48:37.585Z,100.00
2023-04-27T02:51:07.288Z,100.00
2023-04-27T02:53:36.491Z,100.00
2023-04-27T02:56:05.237Z,100.00
2023-04-27T02:58:33.629Z,100.00
2023-04-27T03:01:02.812Z,100.00
2023-04-27T03:03:31.473Z,100.00
2023-04-27T03:06:01.234Z,100.00
2023-04-27T03:08:29.763Z,100.00
2023-04-27T03:10:59.577Z,100.00
2023-04-27T03:13:28.148Z,100.00
2023-04-27T03:15:56.642Z,100.00
2023-04-27T03:18:25.057Z,100.00
2023-04-27T03:20:53.400Z,100.00
2023-04-27T03:23:23.823Z,100.00
2023-04-27T03:25:53.991Z,100.00
2023-04-27T03:28:22.523Z,100.00
2023-04-27T03:30:50.973Z,100.00
2023-04-27T03:33:19.474Z,100.00
2023-04-27T03:35:56.405Z,100.00
2023-04-27T03:38:26.588Z,100.00
2023-04-27T03:40:55.715Z,100.00
2023-04-27T03:43:25.965Z,100.00
2023-04-27T03:45:54.494Z,100.00
2023-04-27T03:48:23.053Z,100.00
2023-04-27T03:50:53.641Z,100.00
2023-04-27T03:53:22.488Z,100.00
2023-04-27T03:55:53.263Z,100.00
2023-04-27T03:58:21.619Z,100.00
2023-04-27T04:01:11.072Z,100.00
2023-04-27T04:03:40.230Z,100.00
2023-04-27T04:06:10.238Z,100.00
2023-04-27T04:08:38.735Z,100.00
2023-04-27T04:11:08.614Z,100.00
2023-04-27T04:13:38.116Z,100.00
2023-04-27T04:16:09.257Z,100.00
2023-04-27T04:18:38.544Z,100.00
2023-04-27T04:21:07.626Z,100.00
2023-04-27T04:23:36.078Z,100.00
2023-04-27T04:26:04.888Z,100.00
2023-04-27T04:28:37.699Z,100.00
2023-04-27T04:31:06.757Z,100.00
2023-04-27T04:33:35.289Z,100.00
2023-04-27T04:36:05.261Z,100.00
2023-04-27T04:38:34.977Z,100.00
2023-04-27T04:41:03.604Z,100.00
2023-04-27T04:43:34.640Z,100.00
2023-04-27T04:46:07.923Z,100.00
2023-04-27T04:48:36.941Z,100.00
2023-04-27T04:51:06.899Z,100.00
2023-04-27T04:53:36.197Z,100.00
2023-04-27T04:56:11.186Z,100.00
2023-04-27T04:58:40.327Z,100.00
2023-04-27T05:01:10.182Z,100.00
2023-04-27T05:03:38.703Z,100.00
2023-04-27T05:06:07.974Z,100.00
2023-04-27T05:08:37.818Z,100.00
2023-04-27T05:11:06.635Z,100.00
2023-04-27T05:13:35.754Z,100.00
2023-04-27T05:16:06.250Z,100.00
2023-04-27T05:18:37.290Z,100.00
2023-04-27T05:21:06.929Z,100.00
2023-04-27T05:23:35.732Z,100.00
2023-04-27T05:26:12.877Z,100.00
2023-04-27T05:28:41.415Z,100.00
2023-04-27T05:31:09.968Z,100.00
2023-04-27T05:33:39.871Z,100.00
2023-04-27T05:36:09.365Z,100.00
2023-04-27T05:38:40.619Z,100.00
2023-04-27T05:41:09.288Z,100.00
2023-04-27T05:43:38.764Z,100.00
2023-04-27T05:46:07.450Z,100.00
2023-04-27T05:48:36.419Z,100.00
2023-04-27T05:51:07.158Z,100.00
2023-04-27T05:53:36.259Z,100.00
2023-04-27T05:56:06.922Z,100.00
2023-04-27T05:58:35.477Z,100.00
2023-04-27T06:01:04.300Z,100.00
2023-04-27T06:03:33.537Z,100.00
2023-04-27T06:06:06.158Z,100.00
2023-04-27T06:08:37.531Z,100.00
2023-04-27T06:11:06.721Z,100.00
2023-04-27T06:13:35.187Z,100.00
2023-04-27T06:16:03.793Z,100.00
2023-04-27T06:18:32.651Z,100.00
2023-04-27T06:21:02.485Z,100.00
2023-04-27T06:23:32.495Z,100.00
2023-04-27T06:26:03.035Z,100.00
2023-04-27T06:28:31.576Z,100.00
2023-04-27T06:31:00.464Z,100.00
2023-04-27T06:33:29.078Z,100.00
2023-04-27T06:35:57.532Z,100.00
2023-04-27T06:38:33.814Z,100.00
2023-04-27T06:41:04.451Z,100.00
2023-04-27T06:43:33.013Z,100.00
2023-04-27T06:46:01.529Z,100.00
2023-04-27T06:48:30.155Z,100.00
2023-04-27T06:50:58.674Z,100.00
2023-04-27T06:53:27.322Z,100.00
2023-04-27T06:55:55.873Z,100.00
2023-04-27T06:58:25.873Z,100.00
2023-04-27T07:00:55.278Z,100.00
2023-04-27T07:03:23.968Z,100.00
2023-04-27T07:05:53.115Z,100.00
2023-04-27T07:08:21.675Z,100.00
2023-04-27T07:10:50.170Z,100.00
2023-04-27T07:13:18.665Z,100.00
2023-04-27T07:15:48.999Z,100.00
2023-04-27T07:18:17.889Z,100.00
2023-04-27T07:20:46.382Z,100.00
2023-04-27T07:23:14.871Z,100.00
2023-04-27T07:25:43.612Z,100.00
2023-04-27T07:28:12.214Z,100.00
2023-04-27T07:30:41.743Z,100.00
2023-04-27T07:33:12.109Z,100.00
2023-04-27T07:35:40.758Z,100.00
2023-04-27T07:38:09.289Z,100.00
2023-04-27T07:40:37.820Z,100.00
2023-04-27T07:43:06.364Z,100.00
2023-04-27T07:45:34.964Z,100.00
2023-04-27T07:48:04.588Z,100.00
2023-04-27T07:50:34.776Z,100.00
2023-04-27T07:53:04.162Z,100.00
2023-04-27T07:55:32.709Z,100.00
2023-04-27T07:58:01.323Z,100.00
2023-04-27T08:00:29.995Z,100.00
2023-04-27T08:02:58.739Z,100.00
2023-04-27T08:05:28.096Z,100.00
2023-04-27T08:07:58.625Z,100.00
2023-04-27T08:10:27.659Z,100.00
2023-04-27T08:12:56.203Z,100.00
2023-04-27T08:15:24.887Z,100.00
2023-04-27T08:17:53.395Z,100.00
2023-04-27T08:20:22.089Z,100.00
2023-04-27T08:22:52.682Z,100.00
2023-04-27T08:25:22.876Z,100.00
2023-04-27T08:27:51.477Z,100.00
2023-04-27T08:30:20.382Z,100.00
2023-04-27T08:32:49.145Z,100.00
2023-04-27T08:35:18.831Z,100.00
2023-04-27T08:37:47.715Z,100.00
2023-04-27T08:40:16.407Z,100.00
2023-04-27T08:42:56.779Z,100.00
2023-04-27T08:45:26.515Z,100.00
2023-04-27T08:47:55.831Z,100.00
2023-04-27T08:50:24.908Z,100.00
2023-04-27T08:52:54.736Z,100.00
2023-04-27T08:55:24.450Z,100.00
2023-04-27T08:57:58.665Z,100.00
2023-04-27T09:00:28.304Z,100.00
2023-04-27T09:02:57.122Z,100.00
2023-04-27T09:05:25.831Z,100.00
2023-04-27T09:07:58.884Z,100.00
2023-04-27T09:10:29.635Z,100.00
2023-04-27T09:13:01.267Z,100.00
2023-04-27T09:15:30.096Z,100.00
2023-04-27T09:17:59.343Z,100.00
2023-04-27T09:20:28.839Z,99.95
2023-04-27T09:22:58.859Z,95.62
2023-04-27T09:25:29.653Z,88.01
2023-04-27T09:28:01.457Z,84.13
2023-04-27T09:30:31.146Z,78.52
2023-04-27T09:33:01.925Z,79.14
2023-04-27T09:35:32.736Z,77.32
2023-04-27T09:38:02.383Z,75.14
2023-04-27T09:40:32.115Z,75.97
2023-04-27T09:43:02.950Z,73.00
2023-04-27T09:45:31.559Z,78.67
2023-04-27T09:48:01.448Z,71.66
2023-04-27T09:50:30.269Z,68.22
2023-04-27T09:52:59.213Z,63.79
2023-04-27T09:55:34.099Z,61.68
2023-04-27T09:58:21.040Z,59.66
2023-04-27T10:01:01.401Z,56.33
2023-04-27T10:03:40.445Z,57.60
2023-04-27T10:06:49.382Z,53.86
2023-04-27T10:09:23.699Z,57.51
2023-04-27T10:11:54.199Z,57.39
2023-04-27T10:14:25.846Z,58.20
2023-04-27T10:16:56.866Z,53.93
2023-04-27T10:19:27.085Z,55.14
2023-04-27T10:21:59.219Z,55.69
2023-04-27T10:24:37.221Z,53.42
2023-04-27T10:27:07.325Z,54.09
2023-04-27T10:29:42.180Z,53.51
2023-04-27T10:32:13.281Z,52.66
2023-04-27T10:34:42.858Z,51.61
2023-04-27T10:37:14.387Z,51.83
2023-04-27T10:39:49.119Z,51.50
2023-04-27T10:42:29.580Z,49.87
2023-04-27T10:44:59.948Z,52.49
2023-04-27T10:47:39.298Z,47.24
2023-04-27T10:50:11.590Z,50.54
2023-04-27T10:52:42.413Z,50.78
2023-04-27T10:55:18.218Z,48.84
2023-04-27T10:57:51.715Z,50.52
2023-04-27T11:00:29.610Z,46.90
2023-04-27T11:02:59.517Z,48.26
2023-04-27T11:05:32.939Z,47.48
2023-04-27T11:08:09.169Z,47.15
2023-04-27T11:10:41.265Z,48.66
2023-04-27T11:13:12.571Z,48.21
2023-04-27T11:15:50.722Z,46.98
2023-04-27T11:18:21.295Z,47.08
2023-04-27T11:20:50.838Z,47.18
2023-04-27T11:23:27.160Z,45.62
2023-04-27T11:25:58.605Z,46.20
2023-04-27T11:28:27.579Z,45.58
2023-04-27T11:31:01.236Z,44.27
2023-04-27T11:33:30.158Z,44.25
2023-04-27T11:35:58.934Z,45.06
2023-04-27T11:38:28.496Z,45.92
2023-04-27T11:41:06.094Z,44.32
2023-04-27T11:43:35.286Z,46.30
2023-04-27T11:46:10.792Z,44.65
2023-04-27T11:48:40.973Z,46.12
2023-04-27T11:51:12.340Z,44.60
2023-04-27T11:53:42.995Z,45.48
2023-04-27T11:56:12.230Z,44.67
2023-04-27T11:58:42.119Z,45.33
2023-04-27T12:01:13.309Z,45.53
2023-04-27T12:03:42.526Z,44.06
2023-04-27T12:06:31.741Z,44.70
2023-04-27T12:09:01.391Z,44.97
2023-04-27T12:11:30.000Z,44.92
2023-04-27T12:13:58.976Z,43.71
2023-04-27T12:16:29.479Z,43.55
2023-04-27T12:18:58.250Z,42.87
2023-04-27T12:21:27.048Z,41.79
2023-04-27T12:23:55.701Z,41.58
2023-04-27T12:26:24.659Z,40.69
2023-04-27T12:28:53.557Z,39.91
2023-04-27T12:31:27.467Z,39.02
2023-04-27T12:33:57.773Z,38.18
2023-04-27T12:36:27.865Z,37.48
2023-04-27T12:39:00.497Z,36.33
2023-04-27T12:41:30.035Z,37.20
2023-04-27T12:43:58.628Z,38.02
2023-04-27T12:46:27.431Z,37.86
2023-04-27T12:48:57.716Z,37.68
2023-04-27T12:51:26.299Z,37.05
2023-04-27T12:53:55.036Z,36.53
2023-04-27T12:56:24.251Z,36.87
2023-04-27T12:58:52.689Z,36.33
2023-04-27T13:01:25.149Z,36.25
2023-04-27T13:03:55.131Z,35.24
2023-04-27T13:06:26.976Z,34.22
2023-04-27T13:08:56.046Z,35.95
2023-04-27T13:11:25.300Z,35.74
2023-04-27T13:13:55.152Z,35.33
2023-04-27T13:16:26.139Z,34.72
2023-04-27T13:18:56.206Z,34.86
2023-04-27T13:21:26.083Z,33.92
2023-04-27T13:23:55.131Z,34.50
2023-04-27T13:26:24.346Z,34.75
2023-04-27T13:28:52.872Z,35.56
2023-04-27T13:31:21.613Z,35.11
2023-04-27T13:33:50.211Z,34.53
2023-04-27T13:36:18.729Z,34.95
2023-04-27T13:38:48.599Z,34.54
2023-04-27T13:41:17.213Z,34.85
2023-04-27T13:43:45.843Z,34.84
2023-04-27T13:46:15.647Z,34.17
2023-04-27T13:48:44.661Z,34.20
2023-04-27T13:51:13.432Z,33.53
2023-04-27T13:53:41.887Z,34.10
2023-04-27T13:56:11.728Z,34.41
2023-04-27T13:58:41.695Z,34.49
2023-04-27T14:01:10.303Z,34.47
2023-04-27T14:03:41.126Z,34.52
2023-04-27T14:06:11.142Z,34.18
2023-04-27T14:08:39.636Z,34.43
2023-04-27T14:11:08.503Z,34.54
2023-04-27T14:13:38.422Z,34.57
2023-04-27T14:16:07.892Z,35.14
2023-04-27T14:18:36.686Z,35.38
2023-04-27T14:21:05.964Z,35.22
2023-04-27T14:23:35.177Z,34.95
2023-04-27T14:26:04.161Z,35.73
2023-04-27T14:28:32.614Z,35.53
2023-04-27T14:31:02.517Z,35.67
2023-04-27T14:33:31.275Z,35.55
2023-04-27T14:36:00.007Z,35.70
2023-04-27T14:38:28.574Z,35.52
2023-04-27T14:40:56.973Z,35.20
2023-04-27T14:43:25.622Z,35.76
2023-04-27T14:45:59.514Z,35.84
2023-04-27T14:48:38.738Z,35.11
2023-04-27T14:51:07.978Z,35.66
2023-04-27T14:53:36.517Z,35.90
2023-04-27T14:56:05.191Z,36.51
2023-04-27T14:58:33.717Z,36.29
2023-04-27T15:01:03.921Z,35.87
2023-04-27T15:03:33.431Z,36.15
2023-04-27T15:06:05.403Z,36.02
2023-04-27T15:08:34.515Z,36.48
2023-04-27T15:11:04.505Z,36.57
2023-04-27T15:13:33.453Z,36.54
2023-04-27T15:16:02.380Z,36.60
2023-04-27T15:18:33.412Z,36.85
2023-04-27T15:21:03.372Z,36.96
2023-04-27T15:23:31.961Z,37.42
2023-04-27T15:26:01.242Z,36.69
2023-04-27T15:28:29.856Z,36.07
2023-04-27T15:30:58.367Z,36.03
2023-04-27T15:33:27.131Z,36.20
2023-04-27T15:35:55.687Z,36.07
2023-04-27T15:38:25.575Z,36.29
2023-04-27T15:40:54.190Z,36.26
2023-04-27T15:43:22.900Z,36.27
2023-04-27T15:45:51.899Z,36.17
2023-04-27T15:48:20.455Z,36.88
2023-04-27T15:50:51.460Z,37.37
2023-04-27T15:53:20.049Z,37.38
2023-04-27T15:55:49.953Z,37.39
2023-04-27T15:58:18.361Z,37.27
2023-04-27T16:00:46.742Z,37.62
2023-04-27T16:03:15.747Z,37.57
2023-04-27T16:05:44.434Z,37.57
2023-04-27T16:08:13.144Z,37.64
2023-04-27T16:10:41.656Z,37.71
2023-04-27T16:13:11.478Z,37.58
2023-04-27T16:15:39.927Z,38.31
2023-04-27T16:18:08.385Z,38.93
2023-04-27T16:20:36.879Z,39.05
2023-04-27T16:23:06.121Z,38.93
2023-04-27T16:25:34.699Z,38.86
2023-04-27T16:28:03.354Z,38.36
2023-04-27T16:30:33.177Z,38.37
2023-04-27T16:33:01.681Z,38.10
2023-04-27T16:35:30.814Z,38.62
2023-04-27T16:37:59.440Z,38.65
2023-04-27T16:40:28.010Z,38.72
2023-04-27T16:42:56.964Z,38.88
2023-04-27T16:45:25.524Z,38.85
2023-04-27T16:47:56.817Z,38.66
2023-04-27T16:50:25.815Z,39.21
2023-04-27T16:52:54.570Z,39.54
2023-04-27T16:55:23.292Z,40.14
2023-04-27T16:57:52.405Z,39.87
2023-04-27T17:00:21.935Z,40.15
2023-04-27T17:02:51.226Z,40.27
2023-04-27T17:05:21.419Z,40.08
2023-04-27T17:07:50.379Z,40.38
2023-04-27T17:10:19.328Z,40.00
2023-04-27T17:12:48.209Z,40.55
2023-04-27T17:15:18.277Z,40.10
2023-04-27T17:17:47.124Z,40.90
2023-04-27T17:20:15.923Z,41.09
2023-04-27T17:22:46.327Z,41.37
2023-04-27T17:25:15.079Z,42.11
2023-04-27T17:27:43.606Z,41.93
2023-04-27T17:30:12.787Z,41.86
2023-04-27T17:32:42.406Z,41.88
2023-04-27T17:35:11.695Z,42.24
2023-04-27T17:37:40.162Z,42.63
2023-04-27T17:40:11.571Z,42.54
2023-04-27T17:42:40.790Z,42.91
2023-04-27T17:45:10.913Z,43.62
2023-04-27T17:47:39.408Z,43.88
2023-04-27T17:50:09.388Z,43.69
2023-04-27T17:52:38.203Z,43.75
2023-04-27T17:55:07.782Z,44.12
2023-04-27T17:57:37.635Z,43.89
2023-04-27T18:00:07.749Z,44.39
2023-04-27T18:02:38.835Z,44.67
2023-04-27T18:05:08.474Z,44.75
2023-04-27T18:07:37.518Z,44.83
2023-04-27T18:10:07.468Z,44.89
2023-04-27T18:12:37.420Z,44.88
2023-04-27T18:15:09.433Z,45.32
2023-04-27T18:17:40.725Z,45.43
2023-04-27T18:20:10.744Z,45.97
2023-04-27T18:22:40.470Z,46.01
2023-04-27T18:25:10.493Z,46.42
2023-04-27T18:27:40.549Z,46.50
2023-04-27T18:30:09.701Z,47.27
2023-04-27T18:32:39.022Z,47.46
2023-04-27T18:35:08.388Z,48.02
2023-04-27T18:37:36.970Z,47.52
2023-04-27T18:40:06.172Z,47.83
2023-04-27T18:42:34.767Z,48.41
2023-04-27T18:45:05.001Z,48.42
2023-04-27T18:47:33.662Z,49.10
2023-04-27T18:50:02.316Z,49.14
2023-04-27T18:52:30.790Z,49.67
2023-04-27T18:54:59.694Z,50.48
2023-04-27T18:57:29.716Z,50.74
2023-04-27T18:59:58.840Z,50.94
2023-04-27T19:02:28.811Z,51.23
2023-04-27T19:05:11.411Z,51.86
2023-04-27T19:07:41.228Z,52.62
2023-04-27T19:10:11.097Z,53.00
2023-04-27T19:12:39.760Z,53.12
2023-04-27T19:15:09.219Z,54.07
2023-04-27T19:17:40.348Z,55.16
2023-04-27T19:20:10.212Z,56.81
2023-04-27T19:22:38.948Z,57.48
2023-04-27T19:25:08.340Z,58.86
2023-04-27T19:27:36.990Z,58.60
2023-04-27T19:30:06.153Z,58.62
2023-04-27T19:32:35.235Z,60.15
2023-04-27T19:35:06.499Z,60.35
2023-04-27T19:37:34.977Z,63.15
2023-04-27T19:40:04.427Z,64.25
2023-04-27T19:42:33.380Z,65.88
2023-04-27T19:45:04.023Z,65.95
2023-04-27T19:47:33.104Z,67.11
2023-04-27T19:50:01.626Z,66.76
2023-04-27T19:52:31.665Z,65.82
2023-04-27T19:55:00.502Z,65.44
2023-04-27T19:57:29.544Z,67.35
2023-04-27T19:59:58.387Z,67.41
2023-04-27T20:02:27.234Z,68.83
2023-04-27T20:04:56.370Z,67.70
2023-04-27T20:07:25.221Z,67.39
2023-04-27T20:09:55.185Z,67.14
2023-04-27T20:12:43.426Z,68.40
2023-04-27T20:15:12.634Z,66.62
2023-04-27T20:17:41.907Z,67.56
2023-04-27T20:20:11.739Z,66.81
2023-04-27T20:22:42.402Z,67.58
2023-04-27T20:25:14.691Z,67.84
2023-04-27T20:27:43.567Z,70.10
2023-04-27T20:30:13.075Z,69.95
2023-04-27T20:32:41.623Z,70.41
2023-04-27T20:35:11.758Z,70.72
2023-04-27T20:37:42.044Z,72.30
2023-04-27T20:40:14.694Z,72.30
2023-04-27T20:42:45.883Z,72.67
2023-04-27T20:45:15.024Z,72.86
2023-04-27T20:47:43.766Z,72.84
2023-04-27T20:50:12.496Z,75.00
2023-04-27T20:52:41.437Z,75.27
2023-04-27T20:55:11.590Z,75.82
2023-04-27T20:57:40.211Z,76.98
2023-04-27T21:00:11.010Z,75.69
2023-04-27T21:02:39.787Z,77.12
2023-04-27T21:05:08.732Z,76.09
2023-04-27T21:07:37.887Z,75.58
2023-04-27T21:10:09.842Z,75.13
2023-04-27T21:12:40.515Z,75.13
2023-04-27T21:15:10.466Z,75.31
2023-04-27T21:17:39.060Z,76.29
2023-04-27T21:20:09.960Z,77.39
2023-04-27T21:22:38.861Z,78.38
2023-04-27T21:25:08.387Z,78.02
2023-04-27T21:27:36.929Z,79.85
2023-04-27T21:30:09.082Z,80.87
2023-04-27T21:32:37.848Z,81.72
2023-04-27T21:35:08.035Z,83.18
2023-04-27T21:37:37.251Z,83.65
2023-04-27T21:40:07.423Z,83.52
2023-04-27T21:42:36.272Z,82.45
2023-04-27T21:45:07.086Z,83.08
2023-04-27T21:47:35.820Z,81.83
2023-04-27T21:50:04.503Z,81.27
2023-04-27T21:52:33.364Z,82.14
2023-04-27T21:55:02.431Z,82.51
2023-04-27T21:57:32.979Z,83.35
2023-04-27T22:00:08.491Z,84.41
2023-04-27T22:02:48.696Z,82.12
2023-04-27T22:05:21.433Z,83.62
2023-04-27T22:07:50.211Z,85.58
2023-04-27T22:10:18.999Z,88.28
2023-04-27T22:12:48.140Z,88.11
2023-04-27T22:15:17.390Z,88.03
2023-04-27T22:17:47.566Z,90.10
2023-04-27T22:20:17.456Z,90.45
2023-04-27T22:22:46.056Z,89.86
2023-04-27T22:25:14.576Z,89.93
2023-04-27T22:27:45.348Z,90.63
2023-04-27T22:30:16.386Z,92.25
2023-04-27T22:32:45.039Z,93.54
2023-04-27T22:35:25.316Z,95.50
2023-04-27T22:37:55.884Z,95.79
2023-04-27T22:40:24.893Z,95.94
2023-04-27T22:42:54.025Z,94.55
2023-04-27T22:45:22.847Z,93.38
2023-04-27T22:47:51.568Z,95.06
2023-04-27T22:50:21.873Z,96.95
2023-04-27T22:52:53.454Z,100.00
2023-04-27T22:55:22.359Z,100.00
2023-04-27T22:57:51.036Z,100.00
2023-04-27T23:00:19.680Z,100.00
2023-04-27T23:02:48.740Z,100.00
2023-04-27T23:05:17.789Z,100.00
2023-04-27T23:07:48.239Z,100.00
2023-04-27T23:10:19.155Z,100.00
2023-04-27T23:12:47.984Z,100.00
2023-04-27T23:15:16.528Z,100.00
2023-04-27T23:17:45.159Z,100.00
2023-04-27T23:20:27.346Z,100.00
2023-04-27T23:22:58.992Z,100.00
2023-04-27T23:25:27.693Z,100.00
2023-04-27T23:27:56.259Z,100.00
2023-04-27T23:30:25.060Z,100.00
2023-04-27T23:32:53.795Z,100.00
2023-04-27T23:35:22.593Z,100.00
2023-04-27T23:37:51.287Z,100.00
2023-04-27T23:40:21.272Z,100.00
2023-04-27T23:42:52.623Z,100.00
2023-04-27T23:45:21.413Z,100.00
2023-04-27T23:47:50.261Z,100.00
2023-04-27T23:50:19.062Z,100.00
2023-04-27T23:52:47.681Z,100.00
2023-04-27T23:55:16.152Z,100.00
2023-04-27T23:57:46.267Z,100.00
